Time;durP1;ratioP1;P1;durP2;ratioP2;P2;SDS_P1;SDS_P2;PMS_P1;PMS_P2;Temp;Humidity;BMP_temperature;BMP_pressure;BME280_temperature;BME280_humidity;BME280_pressure;Samples;Min_cycle;Max_cycle;Signal;HPM_P1;HPM_P2
2022/08/27 00:00:44;;;;;;;;;;;;;;;28.32;55.55;100829.38;5081486;27;67304;-34
2022/08/27 00:03:16;;;;;;;;;;;;;;;28.35;55.48;100831.66;5081243;27;70046;-35
2022/08/27 00:05:48;;;;;;;;;;;;;;;28.38;55.83;100828.56;5080632;28;66610;-33
2022/08/27 00:08:20;;;;;;;;;;;;;;;28.41;56.18;100833.53;5080752;27;70104;-33
2022/08/27 00:10:52;;;;;;;;;;;;;;;28.47;59.69;100845.41;5082963;28;67273;-34
2022/08/27 00:13:24;;;;;;;;;;;;;;;28.56;63.43;100851.47;5083488;27;70989;-35
2022/08/27 00:15:56;;;;;;;;;;;;;;;28.61;65.67;100859.75;5084969;28;66126;-35
2022/08/27 00:18:28;;;;;;;;;;;;;;;28.67;67.17;100864.34;5050011;28;72203;-35
2022/08/27 00:21:00;;;;;;;;;;;;;;;28.73;68.52;100858.13;5081889;27;66257;-36
2022/08/27 00:23:32;;;;;;;;;;;;;;;28.78;69.36;100866.44;5063452;28;70036;-35
2022/08/27 00:26:05;;;;;;;;;;;;;;;28.82;69.95;100873.06;5081833;27;66199;-35
2022/08/27 00:28:38;;;;;;;;;;;;;;;28.85;70.05;100867.25;5084055;27;71320;-34
2022/08/27 00:31:10;;;;;;;;;;;;;;;28.86;70.32;100866.25;5083257;28;66480;-35
2022/08/27 00:33:43;;;;;;;;;;;;;;;28.88;70.70;100866.84;5062087;28;70945;-35
2022/08/27 00:36:15;;;;;;;;;;;;;;;28.92;70.61;100873.50;5067330;28;66492;-35
2022/08/27 00:38:46;;;;;;;;;;;;;;;28.98;70.72;100876.41;5063407;28;70785;-33
2022/08/27 00:41:23;;;;;;;;;;;;;;;29.03;67.92;100879.31;5063130;28;67490;-35
2022/08/27 00:43:57;;;;;;;;;;;;;;;29.11;70.04;100887.22;5063970;28;70866;-34
2022/08/27 00:46:28;;;;;;;;;;;;;;;29.17;71.17;100886.41;5063016;28;65973;-33
2022/08/27 00:49:24;;;;;;;;;;;;;;;29.13;71.49;100890.56;5053591;28;70172;-33
2022/08/27 00:52:07;;;;;;;;;;;;;;;29.09;71.80;100894.72;5056723;28;66341;-33
2022/08/27 00:54:40;;;;;;;;;;;;;;;29.04;72.32;100892.66;5055205;28;70860;-34
2022/08/27 00:57:13;;;;;;;;;;;;;;;29.05;72.50;100898.88;5067634;27;67042;-35
2022/08/27 00:59:45;;;;;;;;;;;;;;;29.02;72.30;100893.84;5063428;28;69543;-36
2022/08/27 01:02:17;;;;;;;;;;;;;;;29.01;72.39;100892.19;5054947;28;66249;-35
2022/08/27 01:05:02;;;;;;;;;;;;;;;28.99;72.74;100884.28;5061646;28;71203;-36
2022/08/27 01:07:37;;;;;;;;;;;;;;;29.00;72.52;100885.94;5076355;28;65960;-34
2022/08/27 01:10:14;;;;;;;;;;;;;;;29.01;73.17;100892.19;5060761;28;70257;-35
2022/08/27 01:12:53;;;;;;;;;;;;;;;28.99;72.78;100891.56;5062040;28;66524;-35
2022/08/27 01:15:26;;;;;;;;;;;;;;;29.00;73.12;100888.66;5061257;28;70511;-34
2022/08/27 01:17:59;;;;;;;;;;;;;;;29.04;72.58;100886.41;5060629;28;66851;-33
2022/08/27 01:20:37;;;;;;;;;;;;;;;29.07;72.26;100891.41;5061245;28;70768;-35
2022/08/27 01:23:16;;;;;;;;;;;;;;;29.03;72.54;100885.59;5062886;28;67193;-33
2022/08/27 01:25:48;;;;;;;;;;;;;;;29.10;72.56;100886.41;5061964;28;70222;-37
2022/08/27 01:28:21;;;;;;;;;;;;;;;29.10;72.32;100896.38;5057733;28;67120;-34
2022/08/27 01:31:07;;;;;;;;;;;;;;;29.11;72.43;100892.63;5060261;28;70171;-35
2022/08/27 01:33:40;;;;;;;;;;;;;;;29.15;72.46;100894.72;5060443;28;66005;-35
2022/08/27 01:36:12;;;;;;;;;;;;;;;29.18;72.39;100893.47;5076506;28;69321;-34
2022/08/27 01:38:43;;;;;;;;;;;;;;;29.25;71.94;100894.28;5081762;27;66405;-35
2022/08/27 01:41:20;;;;;;;;;;;;;;;29.23;72.44;100885.56;5065943;28;45291;-33
2022/08/27 01:43:52;;;;;;;;;;;;;;;29.28;71.51;100888.50;5082371;28;67019;-33
2022/08/27 01:46:27;;;;;;;;;;;;;;;29.30;71.92;100896.38;5079882;27;70695;-35
2022/08/27 01:48:59;;;;;;;;;;;;;;;29.26;71.51;100895.97;5081685;28;67147;-33
2022/08/27 01:51:31;;;;;;;;;;;;;;;29.32;71.23;100897.00;5082682;27;69982;-35
2022/08/27 01:54:04;;;;;;;;;;;;;;;29.34;71.16;100895.75;5063743;27;66855;-32
2022/08/27 01:56:35;;;;;;;;;;;;;;;29.35;71.72;100892.00;5081690;28;71494;-34
2022/08/27 01:59:07;;;;;;;;;;;;;;;29.38;71.19;100894.28;5079863;28;66600;-33
2022/08/27 02:01:39;;;;;;;;;;;;;;;29.40;70.95;100881.41;5082284;28;70703;-35
2022/08/27 02:04:11;;;;;;;;;;;;;;;29.44;71.28;100875.56;5055788;28;66158;-35
2022/08/27 02:06:43;;;;;;;;;;;;;;;29.46;71.25;100881.59;5036889;28;70611;-37
2022/08/27 02:09:16;;;;;;;;;;;;;;;29.47;70.62;100875.13;5055059;28;66744;-36
2022/08/27 02:11:49;;;;;;;;;;;;;;;29.49;71.12;100878.47;5063944;28;69901;-40
2022/08/27 02:14:21;;;;;;;;;;;;;;;29.53;70.33;100877.84;5061865;28;66930;-33
2022/08/27 02:16:54;;;;;;;;;;;;;;;29.54;70.80;100881.38;5079430;28;69901;-37
2022/08/27 02:19:26;;;;;;;;;;;;;;;29.06;69.65;100787.09;5079149;28;67679;-34
2022/08/27 02:21:59;;;;;;;;;;;;;;;29.60;70.00;100880.53;5072767;28;70675;-33
2022/08/27 02:24:31;;;;;;;;;;;;;;;29.60;70.51;100885.94;5077132;28;67065;-34
2022/08/27 02:27:03;;;;;;;;;;;;;;;29.62;70.06;100883.84;5080252;28;71002;-34
2022/08/27 02:29:35;;;;;;;;;;;;;;;29.59;70.79;100890.50;5063988;28;66706;-33
2022/08/27 02:32:07;;;;;;;;;;;;;;;29.61;70.83;100887.56;5062533;28;70885;-32
2022/08/27 02:34:54;;;;;;;;;;;;;;;29.61;70.92;100879.47;5081868;28;67692;-33
2022/08/27 02:37:27;;;;;;;;;;;;;;;29.59;71.01;100879.69;5081301;28;70883;-34
2022/08/27 02:40:00;;;;;;;;;;;;;;;29.61;70.64;100876.75;5081504;28;66523;-34
2022/08/27 02:42:32;;;;;;;;;;;;;;;29.60;70.68;100872.41;5081069;28;68998;-34
2022/08/27 02:45:06;;;;;;;;;;;;;;;29.59;70.15;100877.00;5081195;27;66462;-35
2022/08/27 02:47:38;;;;;;;;;;;;;;;29.59;70.59;100879.69;5062865;28;71024;-33
2022/08/27 02:50:11;;;;;;;;;;;;;;;29.62;70.30;100870.34;5081209;27;66315;-33
2022/08/27 02:52:46;;;;;;;;;;;;;;;29.61;70.30;100872.22;5080194;27;70894;-34
2022/08/27 02:55:18;;;;;;;;;;;;;;;29.64;69.72;100870.97;5081345;27;67076;-33
2022/08/27 02:57:51;;;;;;;;;;;;;;;29.63;70.30;100869.31;5074352;28;69946;-34
2022/08/27 03:00:24;;;;;;;;;;;;;;;29.64;69.81;100881.78;5081368;27;67301;-34
2022/08/27 03:02:56;;;;;;;;;;;;;;;29.66;69.91;100874.28;5081806;27;70826;-34
2022/08/27 03:05:28;;;;;;;;;;;;;;;29.66;70.06;100874.28;5079831;27;67060;-35
2022/08/27 03:08:02;;;;;;;;;;;;;;;29.67;69.89;100869.72;5081868;27;70941;-34
2022/08/27 03:10:34;;;;;;;;;;;;;;;29.68;69.74;100871.41;5082019;28;66596;-34
2022/08/27 03:13:06;;;;;;;;;;;;;;;29.69;70.11;100879.28;5080633;28;70909;-34
2022/08/27 03:15:37;;;;;;;;;;;;;;;29.69;69.69;100878.44;5082670;28;66534;-34
2022/08/27 03:18:18;;;;;;;;;;;;;;;29.72;69.66;100873.44;5081758;27;70793;-34
2022/08/27 03:20:55;;;;;;;;;;;;;;;29.72;70.05;100868.03;5082165;28;66278;-36
2022/08/27 03:23:28;;;;;;;;;;;;;;;29.75;69.88;100873.00;5081137;28;70326;-33
2022/08/27 03:26:02;;;;;;;;;;;;;;;29.75;69.26;100866.78;5081434;28;66269;-34
2022/08/27 03:28:35;;;;;;;;;;;;;;;29.76;69.19;100863.88;5081801;28;72400;-33
2022/08/27 03:31:08;;;;;;;;;;;;;;;29.77;69.26;100857.41;5079632;28;67048;-34
2022/08/27 03:33:42;;;;;;;;;;;;;;;29.81;69.29;100855.97;5082431;28;70819;-33
2022/08/27 03:36:13;;;;;;;;;;;;;;;29.84;69.46;100860.13;5080896;28;67044;-33
2022/08/27 03:38:45;;;;;;;;;;;;;;;29.82;69.71;100854.91;5080845;27;71121;-34
2022/08/27 03:41:17;;;;;;;;;;;;;;;29.84;69.14;100855.53;5063189;28;66951;-33
2022/08/27 03:43:51;;;;;;;;;;;;;;;29.87;69.60;100858.84;5080327;27;70334;-33
2022/08/27 03:46:28;;;;;;;;;;;;;;;29.90;69.31;100844.91;5081122;27;66296;-34
2022/08/27 03:49:01;;;;;;;;;;;;;;;29.91;69.07;100841.97;5063169;28;69357;-32
2022/08/27 03:51:33;;;;;;;;;;;;;;;29.94;69.03;100843.41;5078688;28;67323;-33
2022/08/27 03:54:05;;;;;;;;;;;;;;;29.95;69.47;100840.50;5062984;28;70523;-34
2022/08/27 03:56:38;;;;;;;;;;;;;;;29.95;69.79;100840.50;5079598;28;66410;-35
2022/08/27 03:59:10;;;;;;;;;;;;;;;29.95;69.37;100836.94;5079308;28;70165;-34
2022/08/27 04:01:43;;;;;;;;;;;;;;;30.01;69.37;100839.66;5079660;28;67178;-34
2022/08/27 04:04:15;;;;;;;;;;;;;;;30.06;69.28;100822.75;5056702;28;70807;-33
2022/08/27 04:06:47;;;;;;;;;;;;;;;30.10;69.01;100831.28;5056630;28;67014;-33
2022/08/27 04:09:18;;;;;;;;;;;;;;;30.13;69.35;100826.25;5078373;28;70847;-32
2022/08/27 04:11:50;;;;;;;;;;;;;;;30.13;69.23;100810.03;5079001;28;67307;-34
2022/08/27 04:14:23;;;;;;;;;;;;;;;30.15;69.30;100816.06;5077982;28;70584;-33
2022/08/27 04:16:56;;;;;;;;;;;;;;;30.21;68.94;100806.25;5077336;28;66407;-33
2022/08/27 04:19:31;;;;;;;;;;;;;;;30.23;69.29;100802.31;5075652;28;70824;-34
2022/08/27 04:22:04;;;;;;;;;;;;;;;30.26;69.22;100796.47;5067975;28;67596;-33
2022/08/27 04:24:37;;;;;;;;;;;;;;;30.33;68.85;100799.09;5077680;28;71473;-33
2022/08/27 04:27:09;;;;;;;;;;;;;;;30.43;68.66;100804.06;5075655;27;66342;-35
2022/08/27 04:29:41;;;;;;;;;;;;;;;30.41;68.38;100800.72;5077969;28;70659;-34
2022/08/27 04:32:16;;;;;;;;;;;;;;;30.41;67.64;100796.13;5059626;28;67120;-34
2022/08/27 04:34:48;;;;;;;;;;;;;;;30.42;67.54;100799.66;5076485;28;70052;-34
2022/08/27 04:37:21;;;;;;;;;;;;;;;30.43;67.06;100790.53;5078736;28;66207;-35
2022/08/27 04:39:53;;;;;;;;;;;;;;;30.45;67.05;100782.97;5079818;28;70906;-34
2022/08/27 04:42:25;;;;;;;;;;;;;;;30.46;67.01;100781.97;5078897;28;65476;-34
2022/08/27 04:44:57;;;;;;;;;;;;;;;30.48;66.90;100775.28;5078234;28;71589;-34
2022/08/27 04:47:29;;;;;;;;;;;;;;;30.48;66.31;100769.88;5078856;28;67054;-32
2022/08/27 04:50:01;;;;;;;;;;;;;;;30.54;66.78;100772.75;5078330;28;70396;-33
2022/08/27 04:52:35;;;;;;;;;;;;;;;30.56;67.15;100766.03;5076076;28;67401;-33
2022/08/27 04:55:10;;;;;;;;;;;;;;;30.58;67.12;100766.66;5075509;28;70263;-33
2022/08/27 04:57:43;;;;;;;;;;;;;;;30.61;66.57;100766.19;5079028;28;66767;-33
2022/08/27 05:00:18;;;;;;;;;;;;;;;30.61;66.25;100758.06;5064206;28;69794;-33
2022/08/27 05:02:49;;;;;;;;;;;;;;;30.49;65.18;100754.44;5081328;28;66216;-34
2022/08/27 05:05:22;;;;;;;;;;;;;;;30.45;63.57;100747.81;5078751;28;70710;-33
2022/08/27 05:07:54;;;;;;;;;;;;;;;30.38;62.65;100742.44;5079739;28;67031;-34
2022/08/27 05:10:26;;;;;;;;;;;;;;;30.33;61.39;100744.16;5080910;28;71153;-33
2022/08/27 05:12:58;;;;;;;;;;;;;;;30.27;60.79;100741.28;5079209;27;66275;-33
2022/08/27 05:15:30;;;;;;;;;;;;;;;30.24;59.81;100730.06;5079310;28;70087;-34
2022/08/27 05:18:02;;;;;;;;;;;;;;;30.20;59.09;100724.25;5079740;28;66453;-35
2022/08/27 05:20:40;;;;;;;;;;;;;;;30.19;58.69;100722.56;5074325;28;70858;-34
2022/08/27 05:23:13;;;;;;;;;;;;;;;30.13;57.78;100712.63;5079951;28;67062;-32
2022/08/27 05:25:46;;;;;;;;;;;;;;;30.11;57.14;100712.03;5051507;28;70846;-33
2022/08/27 05:28:22;;;;;;;;;;;;;;;30.08;56.17;100712.47;5081877;28;66349;-32
2022/08/27 05:31:02;;;;;;;;;;;;;;;30.04;55.51;100693.16;5079974;28;70956;-33
2022/08/27 05:33:34;;;;;;;;;;;;;;;30.02;55.01;100689.00;5079672;27;66479;-33
2022/08/27 05:36:07;;;;;;;;;;;;;;;30.02;54.73;100683.59;5045306;28;69971;-33
2022/08/27 05:38:39;;;;;;;;;;;;;;;30.00;53.97;100674.84;5065415;28;67077;-32
2022/08/27 05:41:13;;;;;;;;;;;;;;;29.99;53.98;100663.22;5072275;28;70815;-32
2022/08/27 05:43:45;;;;;;;;;;;;;;;29.97;53.54;100665.31;5082700;27;67244;-33
2022/08/27 05:46:21;;;;;;;;;;;;;;;29.97;52.83;100653.66;5080777;28;70896;-32
2022/08/27 05:48:57;;;;;;;;;;;;;;;29.95;52.04;100648.50;5083220;27;66307;-32
2022/08/27 05:51:30;;;;;;;;;;;;;;;29.95;51.36;100634.13;5083173;28;71229;-33
2022/08/27 05:54:05;;;;;;;;;;;;;;;29.95;51.44;100644.94;5061065;27;67003;-33
2022/08/27 05:56:38;;;;;;;;;;;;;;;29.95;50.88;100628.72;5063924;28;71150;-33
2022/08/27 06:02:04;;;;;;;;;;;;;;;29.96;50.88;100614.16;5081365;27;71160;-32
2022/08/27 06:04:36;;;;;;;;;;;;;;;29.99;50.49;100608.31;5078354;28;67087;-33
2022/08/27 06:07:09;;;;;;;;;;;;;;;29.99;49.91;100608.31;5081661;28;69734;-33
2022/08/27 06:09:42;;;;;;;;;;;;;;;29.98;49.73;100595.84;5082048;28;66404;-35
2022/08/27 06:12:14;;;;;;;;;;;;;;;30.02;49.89;100597.03;5064811;28;70636;-33
2022/08/27 06:14:45;;;;;;;;;;;;;;;30.02;49.54;100591.63;5081114;28;66523;-33
2022/08/27 06:17:18;;;;;;;;;;;;;;;30.03;49.23;100588.72;5082445;28;70082;-34
2022/08/27 06:19:50;;;;;;;;;;;;;;;30.05;49.20;100585.78;5082453;28;66295;-33
2022/08/27 06:22:21;;;;;;;;;;;;;;;30.04;48.92;100581.44;5081123;27;70831;-38
2022/08/27 06:24:54;;;;;;;;;;;;;;;30.06;49.10;100584.72;5064630;28;66697;-34
2022/08/27 06:27:26;;;;;;;;;;;;;;;30.08;48.58;100569.09;5064459;28;70868;-33
2022/08/27 06:29:58;;;;;;;;;;;;;;;30.10;48.92;100569.72;5073758;28;67165;-33
2022/08/27 06:32:30;;;;;;;;;;;;;;;30.13;48.97;100566.56;5082287;28;71051;-33
2022/08/27 06:35:02;;;;;;;;;;;;;;;30.18;48.43;100558.59;5063413;28;66610;-32
2022/08/27 06:37:33;;;;;;;;;;;;;;;30.20;48.14;100551.09;5080216;28;70969;-32
2022/08/27 06:40:07;;;;;;;;;;;;;;;30.21;48.08;100544.63;5081843;28;66729;-34
2022/08/27 06:42:39;;;;;;;;;;;;;;;30.25;47.60;100537.75;5079784;28;70480;-33
2022/08/27 06:45:10;;;;;;;;;;;;;;;30.30;47.43;100533.56;5078122;28;65517;-33
2022/08/27 06:47:43;;;;;;;;;;;;;;;30.33;47.43;100528.50;5079447;28;70991;-32
2022/08/27 06:50:15;;;;;;;;;;;;;;;30.39;47.65;100529.47;5079457;28;67490;-33
2022/08/27 06:52:51;;;;;;;;;;;;;;;30.41;47.09;100520.09;5079698;28;70545;-32
2022/08/27 06:55:23;;;;;;;;;;;;;;;30.45;46.54;100515.03;5080370;28;66990;-33
2022/08/27 06:57:55;;;;;;;;;;;;;;;30.49;46.74;100516.25;5080100;28;70996;-33
2022/08/27 07:00:28;;;;;;;;;;;;;;;30.54;46.28;100511.00;5061175;28;66403;-34
2022/08/27 07:03:02;;;;;;;;;;;;;;;30.56;46.52;100511.56;5076743;28;70896;-34
2022/08/27 07:05:35;;;;;;;;;;;;;;;30.62;46.68;100510.69;5076063;27;66680;-36
2022/08/27 07:08:09;;;;;;;;;;;;;;;30.65;46.36;100507.53;5062866;27;70053;-34
2022/08/27 07:10:42;;;;;;;;;;;;;;;30.68;46.34;100504.34;5078995;28;67172;-34
2022/08/27 07:13:14;;;;;;;;;;;;;;;30.70;45.84;100499.56;5078732;27;69909;-32
2022/08/27 07:15:45;;;;;;;;;;;;;;;30.76;46.41;100505.94;5077672;27;67706;-35
2022/08/27 07:18:20;;;;;;;;;;;;;;;30.81;46.16;100499.84;5079763;27;70327;-34
2022/08/27 07:20:56;;;;;;;;;;;;;;;30.83;45.63;100489.63;5079284;28;66483;-35
2022/08/27 07:23:29;;;;;;;;;;;;;;;30.87;45.22;100490.78;5077317;27;70662;-35
2022/08/27 07:26:01;;;;;;;;;;;;;;;30.88;45.00;100476.22;5078805;28;66420;-34
2022/08/27 07:28:34;;;;;;;;;;;;;;;30.94;44.69;100480.72;5041317;28;70223;-34
2022/08/27 07:31:10;;;;;;;;;;;;;;;30.95;44.67;100468.81;5078226;28;67135;-34
2022/08/27 07:33:42;;;;;;;;;;;;;;;31.03;44.85;100473.91;5077828;28;70021;-34
2022/08/27 07:36:20;;;;;;;;;;;;;;;31.07;44.74;100471.56;5059157;28;66068;-35
2022/08/27 07:38:52;;;;;;;;;;;;;;;31.14;45.28;100464.97;5074193;28;70688;-33
2022/08/27 07:44:23;;;;;;;;;;;;;;;31.21;45.20;100464.06;5074507;28;67350;-35
2022/08/27 07:44:24;;;;;;;;;;;;;;;31.23;45.10;100451.94;5077768;28;70736;-34
2022/08/27 07:47:03;;;;;;;;;;;;;;;31.26;44.94;100448.75;5074534;28;67242;-35
2022/08/27 07:49:36;;;;;;;;;;;;;;;31.29;45.11;100452.91;5078353;28;70281;-35
2022/08/27 07:52:08;;;;;;;;;;;;;;;31.30;45.17;100457.25;5075576;28;66380;-34
2022/08/27 07:54:41;;;;;;;;;;;;;;;31.32;45.57;100449.72;5078463;28;70751;-34
2022/08/27 07:57:12;;;;;;;;;;;;;;;31.35;45.08;100441.94;5058196;28;66534;-34
2022/08/27 07:59:46;;;;;;;;;;;;;;;31.43;44.89;100435.38;5076155;28;71230;-35
2022/08/27 08:02:19;;;;;;;;;;;;;;;31.44;44.67;100431.59;5076090;28;67325;-34
2022/08/27 08:04:51;;;;;;;;;;;;;;;31.44;44.60;100437.03;5040955;28;69939;-35
2022/08/27 08:07:23;;;;;;;;;;;;;;;31.51;44.26;100445.88;5078664;27;66795;-33
2022/08/27 08:09:57;;;;;;;;;;;;;;;31.48;44.22;100449.06;5077890;28;71020;-34
2022/08/27 08:12:30;;;;;;;;;;;;;;;31.50;44.28;100446.91;5078951;28;67078;-33
2022/08/27 08:15:03;;;;;;;;;;;;;;;31.52;43.79;100452.94;5079665;27;70250;-33
2022/08/27 08:17:35;;;;;;;;;;;;;;;31.54;43.90;100458.13;5081062;28;66918;-33
2022/08/27 08:20:08;;;;;;;;;;;;;;;31.57;44.06;100442.22;5078003;28;70925;-33
2022/08/27 08:23:00;;;;;;;;;;;;;;;31.67;46.27;100435.38;5065946;28;66392;-35
2022/08/27 08:25:32;;;;;;;;;;;;;;;31.86;49.62;100438.78;5060227;28;69675;-32
2022/08/27 08:28:08;;;;;;;;;;;;;;;32.01;52.49;100429.13;5079633;28;67316;-35
2022/08/27 08:30:42;;;;;;;;;;;;;;;32.16;53.85;100433.22;5079231;27;70653;-34
2022/08/27 08:33:15;;;;;;;;;;;;;;;32.24;55.92;100422.81;5081445;28;67039;-32
2022/08/27 08:35:48;;;;;;;;;;;;;;;32.34;56.84;100415.94;5070737;28;70185;-33
2022/08/27 08:38:20;;;;;;;;;;;;;;;32.41;57.26;100414.72;5063988;28;67422;-33
2022/08/27 08:40:53;;;;;;;;;;;;;;;32.45;57.87;100407.72;5061911;28;70711;-36
2022/08/27 08:43:31;;;;;;;;;;;;;;;32.53;58.15;100400.31;5061653;28;67116;-33
2022/08/27 08:46:09;;;;;;;;;;;;;;;32.59;58.50;100408.28;5062402;28;70137;-33
2022/08/27 08:48:43;;;;;;;;;;;;;;;32.65;58.31;100409.22;5060664;28;66279;-35
2022/08/27 08:51:28;;;;;;;;;;;;;;;32.75;58.22;100419.44;5062459;28;71144;-33
2022/08/27 08:54:06;;;;;;;;;;;;;;;32.82;58.41;100431.81;5063348;28;67023;-34
2022/08/27 08:56:53;;;;;;;;;;;;;;;32.93;58.46;100440.94;5059470;28;70645;-34
2022/08/27 08:59:28;;;;;;;;;;;;;;;33.12;58.20;100441.59;5062544;28;67264;-34
2022/08/27 09:02:00;;;;;;;;;;;;;;;33.29;57.65;100442.44;5061236;28;69865;-34
2022/08/27 09:04:32;;;;;;;;;;;;;;;33.40;57.10;100445.28;5063189;28;66408;-34
2022/08/27 09:07:13;;;;;;;;;;;;;;;33.50;56.48;100453.63;5062322;28;71025;-34
2022/08/27 09:09:47;;;;;;;;;;;;;;;33.56;56.35;100447.22;5063651;28;67331;-34
2022/08/27 09:12:23;;;;;;;;;;;;;;;33.62;56.13;100439.94;5062550;28;70733;-34
2022/08/27 09:14:55;;;;;;;;;;;;;;;33.61;56.50;100433.69;5059344;28;67383;-33
2022/08/27 09:17:29;;;;;;;;;;;;;;;33.61;56.67;100439.13;5064105;28;71496;-35
2022/08/27 09:20:04;;;;;;;;;;;;;;;33.66;56.18;100452.00;5062068;28;65337;-34
2022/08/27 09:22:56;;;;;;;;;;;;;;;33.53;56.44;100447.72;5060696;28;69918;-35
2022/08/27 09:25:31;;;;;;;;;;;;;;;33.28;58.01;100451.63;5061241;28;66458;-35
2022/08/27 09:29:14;;;;;;;;;;;;;;;33.09;58.76;100459.19;5060366;28;70786;-36
2022/08/27 09:31:05;;;;;;;;;;;;;;;32.98;59.73;100451.09;5062195;28;66360;-34
2022/08/27 09:33:37;;;;;;;;;;;;;;;32.92;60.28;100450.19;5062159;28;70771;-35
2022/08/27 09:36:25;;;;;;;;;;;;;;;32.84;60.98;100451.38;5078192;27;67364;-35
2022/08/27 09:39:01;;;;;;;;;;;;;;;32.82;61.11;100442.69;5082284;27;69933;-35
2022/08/27 09:41:39;;;;;;;;;;;;;;;32.80;61.21;100444.81;5080732;27;67146;-35
2022/08/27 09:44:12;;;;;;;;;;;;;;;32.78;61.48;100440.69;5080844;27;69822;-41
2022/08/27 09:46:51;;;;;;;;;;;;;;;32.77;61.09;100439.88;5082934;27;66437;-36
2022/08/27 09:49:23;;;;;;;;;;;;;;;32.75;61.61;100447.44;5081808;27;70132;-35
2022/08/27 09:51:56;;;;;;;;;;;;;;;32.71;61.82;100457.97;5079690;27;67010;-35
2022/08/27 09:54:51;;;;;;;;;;;;;;;32.83;61.61;100460.63;5080287;28;70875;-35
2022/08/27 09:57:32;;;;;;;;;;;;;;;33.02;61.02;100452.28;5077193;27;67213;-34
2022/08/27 10:00:07;;;;;;;;;;;;;;;33.15;60.10;100451.97;5062182;27;69999;-34
2022/08/27 10:02:51;;;;;;;;;;;;;;;33.26;59.38;100467.38;5071324;28;66487;-35
2022/08/27 10:05:28;;;;;;;;;;;;;;;33.33;58.91;100470.75;5081314;28;70874;-35
2022/08/27 10:08:18;;;;;;;;;;;;;;;33.20;59.07;100435.75;5063829;28;67229;-35
2022/08/27 10:10:56;;;;;;;;;;;;;;;33.44;58.50;100454.63;5082512;27;70508;-37
2022/08/27 10:13:36;;;;;;;;;;;;;;;33.47;58.36;100448.69;5063752;28;67035;-34
2022/08/27 10:16:23;;;;;;;;;;;;;;;33.50;58.14;100453.63;5081543;27;70707;-36
2022/08/27 10:19:10;;;;;;;;;;;;;;;33.52;57.94;100446.03;5082599;28;67225;-36
2022/08/27 10:21:46;;;;;;;;;;;;;;;33.53;58.11;100455.88;5080704;28;70607;-35
2022/08/27 10:24:20;;;;;;;;;;;;;;;33.54;57.59;100454.78;5082107;27;67270;-35
2022/08/27 10:27:18;;;;;;;;;;;;;;;33.55;57.66;100464.59;5082168;28;70398;-35
2022/08/27 10:29:59;;;;;;;;;;;;;;;33.56;57.67;100466.25;5081408;28;67012;-35
2022/08/27 10:32:40;;;;;;;;;;;;;;;33.58;57.50;100461.41;5077206;28;70104;-34
2022/08/27 10:35:17;;;;;;;;;;;;;;;33.55;57.50;100456.47;5077257;28;66616;-35
2022/08/27 10:37:51;;;;;;;;;;;;;;;33.56;57.12;100458.09;5078024;28;70850;-35
2022/08/27 10:40:23;;;;;;;;;;;;;;;33.40;57.72;100456.16;5070757;28;66787;-34
2022/08/27 10:43:13;;;;;;;;;;;;;;;33.19;59.04;100458.56;5080251;27;70610;-35
2022/08/27 10:45:56;;;;;;;;;;;;;;;33.07;58.51;100471.38;5080061;27;65251;-34
2022/08/27 10:48:28;;;;;;;;;;;;;;;33.00;58.25;100470.72;5080937;28;70802;-34
2022/08/27 10:51:10;;;;;;;;;;;;;;;32.94;58.93;100473.31;5078371;28;67386;-35
2022/08/27 10:53:52;;;;;;;;;;;;;;;32.89;59.70;100470.50;5079158;27;70830;-35
2022/08/27 10:56:23;;;;;;;;;;;;;;;32.84;60.57;100488.59;5080192;27;66414;-34
2022/08/27 10:59:10;;;;;;;;;;;;;;;32.79;61.03;100502.09;5081265;28;70943;-35
2022/08/27 11:01:53;;;;;;;;;;;;;;;32.76;61.06;100497.97;5080434;28;67233;-34
2022/08/27 11:04:31;;;;;;;;;;;;;;;32.73;61.32;100503.88;5080026;28;70190;-33
2022/08/27 11:07:06;;;;;;;;;;;;;;;32.67;61.49;100500.25;5080395;28;67224;-34
2022/08/27 11:10:04;;;;;;;;;;;;;;;32.69;62.07;100519.03;5062226;28;70168;-33
2022/08/27 11:12:41;;;;;;;;;;;;;;;32.67;62.03;100523.88;5077761;28;67554;-34
2022/08/27 11:15:13;;;;;;;;;;;;;;;32.67;62.35;100532.00;5062820;28;69699;-35
2022/08/27 11:17:49;;;;;;;;;;;;;;;32.67;62.40;100537.44;5061267;28;67392;-34
2022/08/27 11:20:24;;;;;;;;;;;;;;;32.65;62.54;100562.13;5077157;28;69943;-35
2022/08/27 11:23:03;;;;;;;;;;;;;;;32.65;62.84;100572.16;5075764;28;66981;-33
2022/08/27 11:25:49;;;;;;;;;;;;;;;32.64;63.28;100586.81;5074198;28;71006;-34
2022/08/27 11:28:30;;;;;;;;;;;;;;;32.65;63.72;100592.00;5075444;28;67742;-34
2022/08/27 11:31:02;;;;;;;;;;;;;;;32.63;64.10;100590.59;5075976;28;70391;-33
2022/08/27 11:33:47;;;;;;;;;;;;;;;32.64;64.32;100594.94;5077187;28;66529;-34
2022/08/27 11:36:30;;;;;;;;;;;;;;;32.63;65.14;100601.47;5075946;27;70659;-34
2022/08/27 11:39:05;;;;;;;;;;;;;;;32.60;65.00;100618.25;5077375;28;66705;-34
2022/08/27 11:41:37;;;;;;;;;;;;;;;32.59;65.60;100627.44;5077271;28;70350;-33
2022/08/27 11:44:15;;;;;;;;;;;;;;;32.59;65.50;100651.88;5077325;28;67396;-38
2022/08/27 11:46:50;;;;;;;;;;;;;;;32.57;65.80;100662.13;5078904;27;71053;-35
2022/08/27 11:49:28;;;;;;;;;;;;;;;32.53;65.81;100671.81;5078871;28;66556;-34
2022/08/27 11:52:06;;;;;;;;;;;;;;;32.40;66.91;100670.97;5078805;28;70815;-35
2022/08/27 11:54:43;;;;;;;;;;;;;;;32.39;67.21;100677.47;5075322;28;67293;-34
2022/08/27 11:57:29;;;;;;;;;;;;;;;32.39;67.33;100691.03;5077794;28;70384;-34
2022/08/27 12:00:22;;;;;;;;;;;;;;;32.38;67.98;100715.72;5080570;28;66467;-34
2022/08/27 12:03:01;;;;;;;;;;;;;;;32.36;67.93;100715.94;5076353;27;70709;-36
2022/08/27 12:05:39;;;;;;;;;;;;;;;32.35;68.16;100719.72;5078140;28;66339;-35
2022/08/27 12:08:14;;;;;;;;;;;;;;;32.32;68.94;100732.91;5077316;28;70861;-35
2022/08/27 12:10:57;;;;;;;;;;;;;;;32.28;69.34;100740.69;5073824;28;67308;-34
2022/08/27 12:13:37;;;;;;;;;;;;;;;32.25;69.75;100720.28;5081809;28;70858;-38
2022/08/27 12:16:15;;;;;;;;;;;;;;;32.21;70.29;100716.41;5061576;28;66395;-36
2022/08/27 12:18:53;;;;;;;;;;;;;;;32.18;70.42;100702.44;5080740;28;71186;-35
2022/08/27 12:21:28;;;;;;;;;;;;;;;32.13;70.55;100688.78;5078961;27;67945;-37
2022/08/27 12:24:19;;;;;;;;;;;;;;;32.10;71.00;100683.81;5057800;28;70824;-35
2022/08/27 12:27:20;;;;;;;;;;;;;;;32.05;70.70;100682.63;5058683;28;67178;-38
2022/08/27 12:29:52;;;;;;;;;;;;;;;32.03;70.50;100684.72;5052093;28;70378;-39
2022/08/27 12:32:24;;;;;;;;;;;;;;;31.99;70.37;100694.41;5077546;27;66271;-34
2022/08/27 12:35:15;;;;;;;;;;;;;;;31.97;70.58;100684.84;5079965;27;70732;-34
2022/08/27 12:37:48;;;;;;;;;;;;;;;31.93;70.44;100698.06;5078811;28;66852;-35
2022/08/27 12:40:28;;;;;;;;;;;;;;;31.89;70.25;100710.38;5033831;28;70022;-34
2022/08/27 12:43:08;;;;;;;;;;;;;;;31.89;70.47;100726.66;5061770;28;66861;-37
2022/08/27 12:46:02;;;;;;;;;;;;;;;31.86;70.45;100735.25;5047330;28;70295;-35
2022/08/27 12:48:40;;;;;;;;;;;;;;;31.82;70.92;100748.47;5059952;28;66968;-36
2022/08/27 12:51:21;;;;;;;;;;;;;;;31.81;70.89;100757.63;5075118;27;70991;-35
2022/08/27 12:54:05;;;;;;;;;;;;;;;31.79;70.51;100764.38;5074358;28;67253;-35
2022/08/27 12:56:46;;;;;;;;;;;;;;;31.75;69.56;100784.84;5080562;28;71090;-34
2022/08/27 12:59:33;;;;;;;;;;;;;;;31.72;69.39;100785.31;5077587;28;67446;-35
2022/08/27 13:02:05;;;;;;;;;;;;;;;31.68;69.66;100798.50;5078875;28;69954;-35
2022/08/27 13:04:39;;;;;;;;;;;;;;;31.67;69.39;100798.72;5065973;28;67142;-34
2022/08/27 13:07:10;;;;;;;;;;;;;;;31.65;69.04;100806.25;5065158;28;69961;-35
2022/08/27 13:09:43;;;;;;;;;;;;;;;31.59;69.01;100814.25;5078260;28;66815;-35
2022/08/27 13:12:17;;;;;;;;;;;;;;;31.59;68.94;100814.25;5061701;28;70941;-35
2022/08/27 13:14:48;;;;;;;;;;;;;;;31.57;69.03;100810.13;5079780;27;67182;-35
2022/08/27 13:17:26;;;;;;;;;;;;;;;31.55;69.10;100806.81;5065367;28;70189;-36
2022/08/27 13:19:59;;;;;;;;;;;;;;;31.50;69.50;100802.03;5083101;27;66431;-36